createdAt,value
2022-10-09T00:02:50.331Z,100.00
2022-10-09T00:05:53.766Z,100.00
2022-10-09T00:08:59.767Z,100.00
2022-10-09T00:19:25.838Z,100.00
2022-10-09T00:22:29.000Z,100.00
2022-10-09T00:25:32.296Z,100.00
2022-10-09T00:28:38.497Z,100.00
2022-10-09T00:31:41.577Z,100.00
2022-10-09T00:34:44.539Z,100.00
2022-10-09T00:37:48.699Z,100.00
2022-10-09T00:40:52.204Z,100.00
2022-10-09T00:43:57.901Z,100.00
2022-10-09T00:47:00.826Z,100.00
2022-10-09T00:50:41.487Z,100.00
2022-10-09T00:53:44.496Z,100.00
2022-10-09T00:56:48.815Z,100.00
2022-10-09T00:59:51.905Z,100.00
2022-10-09T01:02:54.897Z,100.00
2022-10-09T01:06:27.021Z,100.00
2022-10-09T01:09:37.299Z,100.00
2022-10-09T01:12:40.117Z,100.00
2022-10-09T01:15:59.400Z,100.00
2022-10-09T01:19:16.804Z,100.00
2022-10-09T01:22:19.295Z,100.00
2022-10-09T01:25:51.430Z,100.00
2022-10-09T01:28:59.975Z,100.00
2022-10-09T01:32:04.907Z,100.00
2022-10-09T01:35:08.997Z,100.00
2022-10-09T01:38:14.896Z,100.00
2022-10-09T01:41:17.991Z,100.00
2022-10-09T01:44:24.175Z,100.00
2022-10-09T01:47:27.002Z,100.00
2022-10-09T01:50:34.851Z,100.00
2022-10-09T01:53:38.905Z,100.00
2022-10-09T01:56:45.658Z,100.00
2022-10-09T01:59:50.700Z,100.00
2022-10-09T02:02:55.128Z,100.00
2022-10-09T02:06:01.319Z,100.00
2022-10-09T02:09:07.609Z,100.00
2022-10-09T02:12:12.990Z,100.00
2022-10-09T02:15:16.267Z,100.00
2022-10-09T02:18:51.924Z,100.00
2022-10-09T02:22:06.754Z,100.00
2022-10-09T02:25:09.789Z,100.00
2022-10-09T02:28:12.402Z,100.00
2022-10-09T02:31:22.819Z,100.00
2022-10-09T02:34:25.408Z,100.00
2022-10-09T02:37:28.244Z,100.00
2022-10-09T02:40:31.081Z,100.00
2022-10-09T02:43:33.978Z,100.00
2022-10-09T02:46:38.600Z,100.00
2022-10-09T02:49:41.723Z,100.00
2022-10-09T02:52:44.181Z,100.00
2022-10-09T02:55:46.952Z,100.00
2022-10-09T02:58:49.669Z,100.00
2022-10-09T03:01:52.879Z,100.00
2022-10-09T03:04:55.582Z,100.00
2022-10-09T03:07:58.739Z,100.00
2022-10-09T03:11:01.197Z,100.00
2022-10-09T03:14:03.955Z,100.00
2022-10-09T03:17:06.787Z,100.00
2022-10-09T03:20:12.433Z,100.00
2022-10-09T03:23:14.903Z,100.00
2022-10-09T03:26:23.661Z,100.00
2022-10-09T03:29:30.713Z,100.00
2022-10-09T03:32:34.819Z,100.00
2022-10-09T03:35:37.410Z,100.00
2022-10-09T03:38:40.499Z,100.00
2022-10-09T03:41:42.899Z,100.00
2022-10-09T03:44:45.726Z,100.00
2022-10-09T03:47:48.286Z,100.00
2022-10-09T03:50:51.442Z,100.00
2022-10-09T03:53:56.166Z,100.00
2022-10-09T03:56:59.219Z,100.00
2022-10-09T04:00:01.866Z,100.00
2022-10-09T04:03:10.286Z,100.00
2022-10-09T04:06:13.364Z,100.00
2022-10-09T04:09:16.224Z,100.00
2022-10-09T04:12:22.384Z,100.00
2022-10-09T04:15:25.005Z,100.00
2022-10-09T04:18:28.039Z,100.00
2022-10-09T04:21:30.702Z,100.00
2022-10-09T04:24:33.576Z,100.00
2022-10-09T04:27:37.257Z,100.00
2022-10-09T04:30:42.133Z,100.00
2022-10-09T04:33:45.121Z,100.00
2022-10-09T04:36:48.074Z,100.00
2022-10-09T04:39:50.669Z,100.00
2022-10-09T04:42:53.483Z,100.00
2022-10-09T04:45:57.178Z,100.00
2022-10-09T04:49:00.140Z,100.00
2022-10-09T04:52:03.334Z,100.00
2022-10-09T04:55:07.139Z,100.00
2022-10-09T04:58:10.771Z,100.00
2022-10-09T05:01:20.792Z,100.00
2022-10-09T05:04:24.022Z,100.00
2022-10-09T05:07:27.392Z,100.00
2022-10-09T05:10:32.028Z,100.00
2022-10-09T05:13:37.587Z,100.00
2022-10-09T05:17:01.000Z,100.00
2022-10-09T05:20:03.148Z,100.00
2022-10-09T05:23:05.628Z,100.00
2022-10-09T05:26:12.026Z,100.00
2022-10-09T05:29:14.546Z,100.00
2022-10-09T05:32:17.454Z,100.00
2022-10-09T05:35:20.667Z,99.46
2022-10-09T05:38:24.955Z,98.89
2022-10-09T05:41:29.808Z,98.49
2022-10-09T05:44:33.165Z,95.69
2022-10-09T05:47:36.488Z,97.57
2022-10-09T05:50:39.705Z,98.78
2022-10-09T05:53:44.571Z,96.53
2022-10-09T05:56:47.947Z,99.65
2022-10-09T05:59:51.012Z,98.61
2022-10-09T06:02:55.031Z,97.76
2022-10-09T06:06:06.646Z,97.67
2022-10-09T06:09:20.260Z,96.03
2022-10-09T06:12:30.382Z,94.68
2022-10-09T06:15:33.406Z,90.43
2022-10-09T06:18:36.294Z,86.27
2022-10-09T06:21:39.283Z,85.65
2022-10-09T06:24:42.080Z,86.96
2022-10-09T06:27:44.685Z,90.06
2022-10-09T06:30:48.706Z,91.79
2022-10-09T06:33:53.070Z,92.86
2022-10-09T06:36:55.993Z,93.90
2022-10-09T06:39:59.495Z,94.69
2022-10-09T06:43:04.035Z,93.49
2022-10-09T06:46:13.242Z,84.82
2022-10-09T06:52:53.600Z,74.39
2022-10-09T06:55:58.881Z,71.01
2022-10-09T06:59:06.771Z,69.65
2022-10-09T07:02:09.854Z,68.98
2022-10-09T07:05:12.614Z,67.01
2022-10-09T07:08:18.576Z,65.51
2022-10-09T07:11:31.163Z,66.04
2022-10-09T07:14:39.975Z,65.03
2022-10-09T07:17:45.339Z,64.90
2022-10-09T07:20:48.244Z,63.03
2022-10-09T07:23:51.224Z,59.42
2022-10-09T07:26:56.948Z,59.34
2022-10-09T07:30:01.203Z,60.19
2022-10-09T07:33:04.229Z,58.22
2022-10-09T07:36:09.841Z,58.09
2022-10-09T07:39:13.492Z,56.57
2022-10-09T07:42:16.039Z,53.77
2022-10-09T07:45:18.982Z,53.19
2022-10-09T07:48:21.467Z,51.18
2022-10-09T07:51:27.042Z,52.68
2022-10-09T07:54:29.627Z,52.60
2022-10-09T07:57:32.651Z,51.04
2022-10-09T08:00:35.518Z,50.00
2022-10-09T08:03:38.562Z,48.97
2022-10-09T08:06:44.863Z,48.57
2022-10-09T08:09:52.506Z,49.40
2022-10-09T08:12:55.143Z,48.08
2022-10-09T08:16:00.213Z,46.20
2022-10-09T08:19:03.206Z,45.15
2022-10-09T08:22:06.349Z,45.21
2022-10-09T08:25:14.318Z,46.24
2022-10-09T08:28:17.450Z,43.55
2022-10-09T08:31:20.600Z,43.28
2022-10-09T08:34:23.785Z,43.95
2022-10-09T08:37:26.359Z,45.29
2022-10-09T08:40:47.875Z,43.06
2022-10-09T08:44:01.941Z,41.95
2022-10-09T08:47:57.166Z,41.00
2022-10-09T08:54:50.098Z,39.36
2022-10-09T09:06:14.835Z,42.38
2022-10-09T09:09:29.424Z,42.85
2022-10-09T09:12:58.180Z,43.16
2022-10-09T09:16:25.674Z,44.07
2022-10-09T09:20:10.852Z,42.80
2022-10-09T09:27:02.962Z,46.29
2022-10-09T09:30:12.595Z,47.63
2022-10-09T09:33:44.284Z,51.81
2022-10-09T09:36:53.044Z,52.22
2022-10-09T09:43:21.587Z,44.44
2022-10-09T09:46:29.597Z,41.95
2022-10-09T09:49:32.474Z,40.86
2022-10-09T09:52:43.760Z,40.83
2022-10-09T09:55:54.322Z,40.41
2022-10-09T09:59:00.277Z,39.60
2022-10-09T10:02:12.432Z,41.29
2022-10-09T10:05:23.087Z,44.54
2022-10-09T10:08:31.745Z,46.91
2022-10-09T10:11:35.831Z,47.96
2022-10-09T10:14:49.381Z,50.19
2022-10-09T10:18:07.945Z,49.27
2022-10-09T10:21:20.862Z,45.48
2022-10-09T10:24:32.721Z,43.25
2022-10-09T10:27:39.808Z,43.13
2022-10-09T10:30:43.981Z,43.17
2022-10-09T10:33:54.326Z,45.74
2022-10-09T10:37:07.343Z,44.44
2022-10-09T10:40:21.437Z,44.05
2022-10-09T10:43:33.469Z,47.20
2022-10-09T10:47:03.883Z,51.27
2022-10-09T10:50:14.013Z,48.27
2022-10-09T10:53:39.832Z,49.45
2022-10-09T10:56:48.954Z,47.63
2022-10-09T11:00:09.849Z,43.50
2022-10-09T11:03:40.096Z,42.94
2022-10-09T11:07:16.133Z,44.87
2022-10-09T11:10:50.193Z,39.23
2022-10-09T11:13:58.904Z,40.94
2022-10-09T11:17:14.459Z,46.36
2022-10-09T11:20:38.975Z,40.41
2022-10-09T11:24:12.825Z,41.34
2022-10-09T11:27:43.497Z,40.43
2022-10-09T11:31:09.197Z,41.93
2022-10-09T11:34:40.089Z,41.96
2022-10-09T11:37:48.349Z,40.85
2022-10-09T11:40:51.866Z,42.95
2022-10-09T11:44:16.772Z,45.61
2022-10-09T11:47:31.254Z,49.02
2022-10-09T11:50:41.612Z,48.59
2022-10-09T11:53:46.957Z,47.80
2022-10-09T11:57:06.194Z,44.42
2022-10-09T12:00:11.181Z,47.32
2022-10-09T12:03:43.768Z,45.62
2022-10-09T12:07:09.581Z,48.24
2022-10-09T12:10:40.344Z,45.16
2022-10-09T12:13:45.631Z,46.85
2022-10-09T12:16:48.674Z,46.54
2022-10-09T12:20:07.827Z,48.61
2022-10-09T12:23:26.738Z,49.22
2022-10-09T12:26:30.767Z,50.07
2022-10-09T12:29:45.068Z,51.12
2022-10-09T12:32:55.482Z,50.98
2022-10-09T12:36:07.210Z,50.91
2022-10-09T12:39:21.543Z,51.17
2022-10-09T12:42:25.224Z,54.98
2022-10-09T12:45:30.997Z,55.23
2022-10-09T12:48:39.471Z,55.20
2022-10-09T12:51:42.038Z,52.96
2022-10-09T12:54:45.228Z,52.29
2022-10-09T12:57:47.892Z,53.17
2022-10-09T13:00:55.473Z,52.96
2022-10-09T13:03:59.550Z,53.82
2022-10-09T13:07:07.328Z,53.95
2022-10-09T13:10:22.412Z,52.79
2022-10-09T13:13:27.697Z,53.45
2022-10-09T13:17:00.068Z,53.44
2022-10-09T13:20:25.068Z,53.20
2022-10-09T13:23:36.585Z,55.12
2022-10-09T13:26:45.194Z,53.53
2022-10-09T13:29:48.615Z,54.25
2022-10-09T13:32:51.602Z,54.79
2022-10-09T13:35:54.188Z,55.43
2022-10-09T13:39:08.957Z,55.09
2022-10-09T13:42:15.484Z,55.34
2022-10-09T13:45:18.504Z,56.01
2022-10-09T13:48:21.021Z,56.26
2022-10-09T13:51:24.184Z,56.66
2022-10-09T13:54:29.131Z,54.98
2022-10-09T13:57:32.277Z,55.47
2022-10-09T14:00:38.494Z,57.04
2022-10-09T14:03:42.845Z,52.61
2022-10-09T14:06:45.871Z,52.84
2022-10-09T14:09:48.950Z,52.38
2022-10-09T14:12:52.145Z,53.79
2022-10-09T14:15:55.904Z,54.04
2022-10-09T14:19:07.277Z,53.30
2022-10-09T14:37:29.801Z,54.54
2022-10-09T14:56:04.916Z,57.49
2022-10-09T14:59:11.061Z,57.54
2022-10-09T15:02:16.182Z,57.39
2022-10-09T15:05:19.862Z,57.57
2022-10-09T15:08:27.585Z,57.97
2022-10-09T15:11:31.694Z,58.15
2022-10-09T15:14:34.544Z,58.92
2022-10-09T15:17:40.308Z,59.15
2022-10-09T15:20:46.794Z,58.70
2022-10-09T15:23:50.843Z,59.22
2022-10-09T15:26:53.637Z,59.68
2022-10-09T15:29:56.726Z,58.91
2022-10-09T15:33:03.307Z,60.76
2022-10-09T15:36:07.038Z,61.88
2022-10-09T15:39:10.146Z,61.30
2022-10-09T15:42:39.316Z,61.06
2022-10-09T15:45:42.935Z,60.84
2022-10-09T15:48:47.453Z,61.49
2022-10-09T15:51:51.351Z,60.36
2022-10-09T15:54:56.066Z,61.14
2022-10-09T15:57:58.630Z,61.40
2022-10-09T16:01:10.363Z,61.52
2022-10-09T16:04:14.086Z,61.42
2022-10-09T16:07:16.593Z,61.25
2022-10-09T16:10:19.853Z,62.09
2022-10-09T16:13:24.629Z,61.94
2022-10-09T16:16:28.541Z,61.97
2022-10-09T16:19:31.219Z,62.19
2022-10-09T16:22:34.300Z,62.91
2022-10-09T16:25:43.154Z,62.93
2022-10-09T16:28:47.671Z,63.58
2022-10-09T16:31:50.532Z,63.52
2022-10-09T16:34:53.361Z,64.18
2022-10-09T16:37:56.075Z,64.13
2022-10-09T16:41:02.827Z,65.08
2022-10-09T16:44:12.742Z,65.09
2022-10-09T16:47:15.515Z,65.06
2022-10-09T16:50:45.507Z,65.16
2022-10-09T16:53:53.865Z,64.86
2022-10-09T16:56:56.789Z,64.86
2022-10-09T17:00:00.059Z,64.09
2022-10-09T17:03:02.985Z,64.50
2022-10-09T17:06:11.989Z,64.47
2022-10-09T17:09:15.080Z,64.88
2022-10-09T17:12:18.381Z,63.93
2022-10-09T17:15:21.647Z,63.62
2022-10-09T17:18:25.086Z,63.41
2022-10-09T17:21:32.926Z,64.04
2022-10-09T17:24:37.854Z,64.58
2022-10-09T17:27:40.792Z,64.90
2022-10-09T17:30:44.449Z,64.42
2022-10-09T17:33:48.612Z,64.60
2022-10-09T17:36:51.632Z,64.61
2022-10-09T17:39:55.190Z,65.08
2022-10-09T17:42:58.208Z,65.69
2022-10-09T17:46:01.069Z,65.35
2022-10-09T17:49:04.658Z,65.54
2022-10-09T17:52:07.949Z,65.17
2022-10-09T17:55:11.282Z,65.60
2022-10-09T17:58:14.046Z,65.81
2022-10-09T18:01:18.976Z,66.22
2022-10-09T18:04:31.202Z,65.46
2022-10-09T18:07:37.866Z,65.81
2022-10-09T18:10:41.150Z,65.96
2022-10-09T18:13:46.143Z,66.18
2022-10-09T18:16:54.132Z,65.98
2022-10-09T18:19:57.355Z,66.13
2022-10-09T18:23:00.411Z,66.40
2022-10-09T18:26:19.525Z,66.81
2022-10-09T18:29:22.607Z,67.13
2022-10-09T18:32:25.478Z,67.86
2022-10-09T18:35:30.612Z,68.28
2022-10-09T18:38:41.708Z,68.20
2022-10-09T18:41:46.012Z,68.74
2022-10-09T18:44:50.239Z,69.04
2022-10-09T18:47:53.502Z,69.43
2022-10-09T18:51:00.844Z,70.20
2022-10-09T18:54:07.302Z,69.96
2022-10-09T18:57:10.572Z,70.05
2022-10-09T19:00:16.797Z,71.23
2022-10-09T19:03:20.302Z,71.04
2022-10-09T19:06:23.366Z,70.61
2022-10-09T19:09:26.843Z,71.74
2022-10-09T19:12:32.111Z,72.11
2022-10-09T19:15:35.309Z,72.32
2022-10-09T19:18:42.344Z,72.44
2022-10-09T19:21:45.236Z,71.81
2022-10-09T19:24:48.673Z,72.24
2022-10-09T19:27:52.055Z,72.74
2022-10-09T19:30:59.814Z,72.85
2022-10-09T19:34:05.339Z,73.73
2022-10-09T19:37:12.551Z,73.87
2022-10-09T19:40:17.938Z,73.80
2022-10-09T19:43:23.959Z,74.64
2022-10-09T19:46:27.492Z,74.88
2022-10-09T19:49:32.210Z,75.63
2022-10-09T19:52:34.852Z,76.04
2022-10-09T19:55:38.460Z,75.86
2022-10-09T19:58:43.638Z,75.64
2022-10-09T20:01:46.692Z,76.30
2022-10-09T20:04:49.865Z,75.94
2022-10-09T20:07:52.824Z,75.97
2022-10-09T20:11:03.097Z,76.52
2022-10-09T20:14:06.585Z,77.42
2022-10-09T20:17:09.586Z,77.89
2022-10-09T20:20:12.559Z,76.68
2022-10-09T20:23:15.719Z,76.44
2022-10-09T20:26:21.480Z,75.28
2022-10-09T20:29:27.003Z,74.91
2022-10-09T20:32:30.446Z,73.99
2022-10-09T20:35:33.643Z,72.83
2022-10-09T20:38:36.730Z,72.69
2022-10-09T20:41:48.380Z,72.06
2022-10-09T20:44:53.983Z,72.07
2022-10-09T20:47:57.105Z,71.65
2022-10-09T20:51:00.708Z,71.25
2022-10-09T20:54:06.536Z,71.29
2022-10-09T20:57:09.205Z,71.28
2022-10-09T21:00:13.561Z,70.87
2022-10-09T21:03:16.291Z,70.86
2022-10-09T21:06:21.347Z,70.99
2022-10-09T21:09:33.275Z,71.24
2022-10-09T21:12:36.650Z,70.96
2022-10-09T21:15:47.049Z,70.61
2022-10-09T21:19:01.357Z,70.48
2022-10-09T21:22:04.310Z,70.63
2022-10-09T21:25:07.691Z,70.35
2022-10-09T21:28:10.847Z,69.78
2022-10-09T21:31:20.540Z,69.89
2022-10-09T21:34:23.242Z,69.95
2022-10-09T21:37:26.465Z,69.47
2022-10-09T21:40:29.352Z,69.08
2022-10-09T21:43:32.280Z,69.37
2022-10-09T21:46:36.217Z,69.37
2022-10-09T21:49:43.884Z,69.23
2022-10-09T21:52:48.954Z,69.35
2022-10-09T21:55:52.642Z,68.90
2022-10-09T21:58:55.436Z,69.38
2022-10-09T22:01:58.926Z,69.14
2022-10-09T22:05:02.171Z,68.74
2022-10-09T22:08:05.219Z,69.25
2022-10-09T22:11:10.369Z,68.67
2022-10-09T22:14:13.816Z,68.46
2022-10-09T22:17:20.842Z,68.64
2022-10-09T22:20:24.529Z,68.47
2022-10-09T22:23:28.398Z,69.10
2022-10-09T22:26:32.102Z,69.13
2022-10-09T22:29:36.187Z,69.11
2022-10-09T22:32:39.279Z,69.51
2022-10-09T22:35:45.764Z,68.68
2022-10-09T22:38:48.596Z,68.79
2022-10-09T22:41:52.708Z,68.31
2022-10-09T22:44:56.393Z,67.67
2022-10-09T22:48:00.316Z,67.62
2022-10-09T22:51:05.001Z,66.94
2022-10-09T22:54:12.717Z,66.48
2022-10-09T22:57:15.865Z,66.11
2022-10-09T23:00:19.337Z,65.53
2022-10-09T23:03:22.011Z,65.37
2022-10-09T23:06:26.168Z,65.10
2022-10-09T23:09:32.218Z,64.78
2022-10-09T23:12:35.663Z,64.51
2022-10-09T23:15:38.938Z,64.81
2022-10-09T23:18:43.200Z,64.70
2022-10-09T23:21:46.910Z,65.46
2022-10-09T23:24:49.909Z,64.49
2022-10-09T23:27:52.885Z,64.72
2022-10-09T23:31:05.263Z,64.53
2022-10-09T23:34:08.149Z,64.74
2022-10-09T23:37:11.241Z,63.98
2022-10-09T23:40:14.714Z,64.10
2022-10-09T23:43:18.055Z,64.06
2022-10-09T23:46:27.679Z,64.06
2022-10-09T23:49:31.175Z,64.21
2022-10-09T23:52:34.563Z,64.25
2022-10-09T23:55:38.127Z,64.24
2022-10-09T23:58:41.202Z,63.96
